Time;durP1;ratioP1;P1;durP2;ratioP2;P2;SDS_P1;SDS_P2;PMS_P1;PMS_P2;Temp;Humidity;BMP_temperature;BMP_pressure;BME280_temperature;BME280_humidity;BME280_pressure;Samples;Min_cycle;Max_cycle;Signal;HPM_P1;HPM_P2
2023/05/23 00:00:07;;;;;;;36.30;27.00;;;15.50;99.90;;;;;;5046884;28;20037;-72
2023/05/23 00:02:33;;;;;;;43.40;31.80;;;15.50;99.90;;;;;;5047501;28;20028;-72
2023/05/23 00:05:02;;;;;;;46.25;33.67;;;15.50;99.90;;;;;;5046467;28;20090;-72
2023/05/23 00:07:27;;;;;;;49.58;34.95;;;15.50;99.90;;;;;;5053958;28;20028;-72
2023/05/23 00:09:53;;;;;;;49.75;34.70;;;15.60;99.90;;;;;;5046270;28;20029;-72
2023/05/23 00:12:19;;;;;;;55.40;37.88;;;15.60;99.90;;;;;;5070082;28;20099;-72
2023/05/23 00:14:44;;;;;;;68.88;47.85;;;15.50;99.90;;;;;;5051647;28;20033;-72
2023/05/23 00:17:10;;;;;;;76.88;50.17;;;15.40;99.90;;;;;;5049298;28;20034;-72
2023/05/23 00:19:36;;;;;;;72.10;49.58;;;15.30;99.90;;;;;;5042974;28;20029;-72
2023/05/23 00:22:02;;;;;;;73.85;49.38;;;15.00;99.90;;;;;;5034575;28;20040;-72
2023/05/23 00:24:27;;;;;;;70.28;47.90;;;15.00;99.90;;;;;;5049899;28;20026;-72
2023/05/23 00:26:53;;;;;;;67.65;48.72;;;14.90;99.90;;;;;;5044648;28;20118;-72
2023/05/23 00:29:19;;;;;;;69.47;49.85;;;14.90;99.90;;;;;;5054306;28;20056;-72
2023/05/23 00:31:45;;;;;;;67.38;48.25;;;14.80;99.90;;;;;;5043243;28;20501;-72
2023/05/23 00:34:16;;;;;;;67.10;50.17;;;14.70;99.90;;;;;;5038981;28;20572;-72
2023/05/23 00:36:42;;;;;;;;;;;14.70;99.90;;;;;;5044675;28;20499;-72
2023/05/23 00:39:08;;;;;;;46.67;39.75;;;14.50;99.90;;;;;;5049931;28;19905;-72
2023/05/23 00:41:35;;;;;;;49.75;40.22;;;14.40;99.90;;;;;;5041893;28;20020;-72
2023/05/23 00:44:00;;;;;;;50.42;39.80;;;14.50;99.90;;;;;;5046871;28;20021;-72
2023/05/23 00:46:26;;;;;;;50.55;39.25;;;14.40;99.90;;;;;;5051707;28;20029;-72
2023/05/23 00:48:53;;;;;;;50.53;41.85;;;14.40;99.90;;;;;;5051330;28;20338;-72
2023/05/23 00:51:19;;;;;;;48.05;41.30;;;14.40;99.90;;;;;;5041996;28;20028;-72
2023/05/23 00:53:45;;;;;;;51.38;42.28;;;14.30;99.90;;;;;;5046500;28;20123;-72
2023/05/23 00:56:11;;;;;;;57.08;44.22;;;14.40;99.90;;;;;;5046700;28;20074;-72
2023/05/23 00:58:37;;;;;;;58.22;45.05;;;14.30;99.90;;;;;;5048073;28;20075;-72
2023/05/23 01:01:03;;;;;;;67.03;46.35;;;14.30;99.90;;;;;;5049358;28;20033;-72
2023/05/23 01:03:28;;;;;;;57.85;44.55;;;14.30;99.90;;;;;;5056685;28;20031;-72
2023/05/23 01:05:55;;;;;;;54.38;43.67;;;14.30;99.90;;;;;;5049491;28;20028;-72
2023/05/23 01:08:21;;;;;;;57.90;44.03;;;14.20;99.90;;;;;;5047675;28;20036;-72
2023/05/23 01:10:47;;;;;;;61.08;45.13;;;14.20;99.90;;;;;;5046171;28;20094;-72
2023/05/23 01:13:22;;;;;;;61.22;45.58;;;14.20;99.90;;;;;;5045967;28;20028;-72
2023/05/23 01:16:20;;;;;;;68.50;48.38;;;14.10;99.90;;;;;;5050502;28;20028;-72
2023/05/23 01:18:57;;;;;;;74.40;48.30;;;14.20;99.90;;;;;;5049238;28;20514;-72
2023/05/23 01:21:24;;;;;;;75.85;48.08;;;14.10;99.90;;;;;;5040780;28;20021;-72
2023/05/23 01:24:04;;;;;;;80.63;50.92;;;14.10;99.90;;;;;;5062254;28;20523;-72
2023/05/23 01:26:48;;;;;;;78.32;48.97;;;14.10;99.90;;;;;;5046803;28;20032;-72
2023/05/23 01:29:23;;;;;;;74.28;46.10;;;14.00;99.90;;;;;;5044108;28;20021;-72
2023/05/23 01:31:53;;;;;;;79.07;48.88;;;14.00;99.90;;;;;;5050451;28;20033;-72
2023/05/23 01:34:20;;;;;;;82.63;49.33;;;14.00;99.90;;;;;;5045780;28;20448;-72
2023/05/23 01:36:49;;;;;;;77.75;49.63;;;13.90;99.90;;;;;;5044298;28;20084;-72
2023/05/23 01:39:15;;;;;;;78.53;49.92;;;14.00;99.90;;;;;;5039380;28;20019;-72
2023/05/23 01:41:40;;;;;;;84.57;50.83;;;13.90;99.90;;;;;;5047436;28;20112;-72
2023/05/23 01:44:06;;;;;;;83.43;49.88;;;13.90;99.90;;;;;;5046545;28;20031;-72
2023/05/23 01:46:34;;;;;;;91.43;50.90;;;13.90;99.90;;;;;;5050067;28;20027;-72
2023/05/23 01:49:02;;;;;;;84.47;49.53;;;13.80;99.90;;;;;;5048907;28;20462;-72
2023/05/23 01:51:29;;;;;;;92.63;52.08;;;13.80;99.90;;;;;;5044687;28;20121;-72
2023/05/23 01:53:55;;;;;;;82.80;47.78;;;13.80;99.90;;;;;;5062180;28;20025;-72
2023/05/23 01:56:21;;;;;;;78.57;45.72;;;13.80;99.90;;;;;;5052961;28;20048;-72
2023/05/23 01:58:47;;;;;;;77.32;47.92;;;13.70;99.90;;;;;;5045998;28;20041;-72
2023/05/23 02:01:13;;;;;;;76.03;48.35;;;13.80;99.90;;;;;;5044316;28;20056;-72
2023/05/23 02:03:38;;;;;;;79.82;47.47;;;13.70;99.90;;;;;;5046246;28;20389;-72
2023/05/23 02:06:04;;;;;;;83.28;47.15;;;13.80;99.90;;;;;;5048531;28;20040;-72
2023/05/23 02:08:29;;;;;;;84.00;47.58;;;13.70;99.90;;;;;;5047604;28;20036;-72
2023/05/23 02:10:55;;;;;;;79.72;45.47;;;13.70;99.90;;;;;;5043486;28;20043;-72
2023/05/23 02:13:20;;;;;;;77.05;44.63;;;13.70;99.90;;;;;;5048576;28;20071;-72
2023/05/23 02:15:46;;;;;;;78.00;46.45;;;13.60;99.90;;;;;;5042439;28;20029;-72
2023/05/23 02:18:12;;;;;;;69.00;43.75;;;13.70;99.90;;;;;;5045431;28;20037;-72
2023/05/23 02:20:37;;;;;;;70.22;42.33;;;13.60;99.90;;;;;;5047000;28;20033;-72
2023/05/23 02:23:03;;;;;;;73.90;42.45;;;13.70;99.90;;;;;;5042863;28;20434;-72
2023/05/23 02:25:28;;;;;;;68.72;39.45;;;13.70;99.90;;;;;;5049378;28;20207;-72
2023/05/23 02:27:53;;;;;;;72.68;40.78;;;13.70;99.90;;;;;;5044866;28;20032;-72
2023/05/23 02:30:19;;;;;;;68.25;41.05;;;13.60;99.90;;;;;;5046480;28;20025;-72
2023/05/23 02:32:45;;;;;;;62.20;37.47;;;13.70;99.90;;;;;;5045157;28;20362;-72
2023/05/23 02:35:11;;;;;;;62.72;37.47;;;13.60;99.90;;;;;;5032945;28;20091;-72
2023/05/23 02:37:36;;;;;;;67.70;36.75;;;13.50;99.90;;;;;;5045642;28;20059;-72
2023/05/23 02:40:06;;;;;;;63.13;36.38;;;13.50;99.90;;;;;;5048737;28;20037;-72
2023/05/23 02:42:32;;;;;;;56.40;35.85;;;13.50;99.90;;;;;;5056788;28;20025;-72
2023/05/23 02:44:57;;;;;;;62.55;35.72;;;13.60;99.90;;;;;;5047843;28;20393;-72
2023/05/23 02:47:22;;;;;;;57.17;34.35;;;13.50;99.90;;;;;;5060791;28;20059;-72
2023/05/23 02:49:48;;;;;;;58.05;34.10;;;13.50;99.90;;;;;;5063954;28;20376;-72
2023/05/23 02:52:13;;;;;;;57.95;33.65;;;13.50;99.90;;;;;;5051097;28;20117;-72
2023/05/23 02:54:39;;;;;;;59.05;33.58;;;13.40;99.90;;;;;;5056706;28;20031;-72
2023/05/23 02:57:05;;;;;;;57.13;33.47;;;13.50;99.90;;;;;;5062966;28;20098;-72
2023/05/23 02:59:31;;;;;;;47.50;31.73;;;13.50;99.90;;;;;;5065139;28;20594;-72
2023/05/23 03:01:56;;;;;;;51.30;31.52;;;13.50;99.90;;;;;;5061762;28;20037;-72
2023/05/23 03:04:22;;;;;;;47.80;29.88;;;13.50;99.90;;;;;;5055561;28;20360;-72
2023/05/23 03:06:47;;;;;;;43.50;28.25;;;13.40;99.90;;;;;;5054877;28;20033;-72
2023/05/23 03:09:15;;;;;;;45.45;28.45;;;13.40;99.90;;;;;;5064417;28;20042;-72
2023/05/23 03:11:41;;;;;;;41.72;26.60;;;13.40;99.90;;;;;;5052516;28;20032;-72
2023/05/23 03:14:07;;;;;;;39.15;24.40;;;13.40;99.90;;;;;;5059031;28;20025;-72
2023/05/23 03:16:32;;;;;;;37.75;24.70;;;13.30;99.90;;;;;;5064215;28;20116;-72
2023/05/23 03:18:58;;;;;;;32.42;22.98;;;13.30;99.90;;;;;;5067336;28;20111;-72
2023/05/23 03:21:23;;;;;;;32.58;23.50;;;13.40;99.90;;;;;;5050430;28;20025;-72
2023/05/23 03:23:49;;;;;;;32.92;21.65;;;13.30;99.70;;;;;;5045223;28;20032;-72
2023/05/23 03:26:15;;;;;;;32.83;21.88;;;13.30;99.70;;;;;;5044760;28;20515;-72
2023/05/23 03:28:40;;;;;;;32.78;20.35;;;13.30;99.80;;;;;;5041604;28;20438;-72
2023/05/23 03:31:05;;;;;;;29.35;20.33;;;13.30;99.70;;;;;;5049336;28;20048;-72
2023/05/23 03:33:32;;;;;;;26.90;19.33;;;13.30;99.70;;;;;;5042539;28;20049;-72
2023/05/23 03:35:57;;;;;;;29.80;20.25;;;13.40;99.70;;;;;;5052363;28;20115;-72
2023/05/23 03:38:23;;;;;;;31.85;18.60;;;13.30;99.60;;;;;;5043619;28;20426;-72
2023/05/23 03:40:48;;;;;;;26.92;19.63;;;13.20;99.40;;;;;;5050522;28;20466;-72
2023/05/23 03:43:14;;;;;;;26.02;18.80;;;13.30;99.60;;;;;;5051043;28;20029;-72
2023/05/23 03:45:39;;;;;;;30.10;20.92;;;13.20;99.60;;;;;;5044545;28;20343;-72
2023/05/23 03:48:05;;;;;;;28.33;19.45;;;13.30;99.60;;;;;;5046424;28;20518;-72
2023/05/23 03:50:30;;;;;;;30.00;20.38;;;13.20;99.50;;;;;;5047237;28;21541;-72
2023/05/23 03:52:56;;;;;;;25.63;19.08;;;13.10;99.50;;;;;;5055050;28;20040;-72
2023/05/23 03:55:23;;;;;;;30.30;20.13;;;13.20;99.60;;;;;;5048906;28;20417;-72
2023/05/23 03:57:50;;;;;;;30.88;20.70;;;13.20;99.50;;;;;;5043974;28;20025;-72
2023/05/23 04:00:15;;;;;;;29.80;21.65;;;13.20;99.60;;;;;;5048230;28;20661;-72
2023/05/23 04:02:42;;;;;;;33.97;20.83;;;13.20;99.70;;;;;;5046412;28;20436;-72
2023/05/23 04:05:08;;;;;;;35.03;21.85;;;13.20;99.60;;;;;;5043315;28;20025;-72
2023/05/23 04:07:33;;;;;;;32.88;23.25;;;13.30;99.80;;;;;;5041677;28;20162;-72
2023/05/23 04:10:00;;;;;;;34.17;21.00;;;13.20;99.70;;;;;;5048342;28;20029;-73
2023/05/23 04:12:25;;;;;;;39.55;23.20;;;13.20;99.70;;;;;;5050341;28;20036;-75
2023/05/23 04:14:51;;;;;;;32.65;21.42;;;13.20;99.80;;;;;;5047333;28;20025;-74
2023/05/23 04:17:17;;;;;;;31.48;21.83;;;13.20;99.60;;;;;;5045474;28;20374;-74
2023/05/23 04:19:43;;;;;;;37.22;23.33;;;13.20;99.40;;;;;;5047928;28;20464;-74
2023/05/23 04:22:08;;;;;;;32.55;23.20;;;13.20;99.60;;;;;;5043699;28;20033;-74
2023/05/23 04:24:34;;;;;;;33.13;22.52;;;13.20;99.50;;;;;;5052137;28;20021;-75
2023/05/23 04:27:00;;;;;;;29.00;21.08;;;13.30;99.50;;;;;;5053182;28;20056;-74
2023/05/23 04:29:26;;;;;;;35.38;22.05;;;13.20;99.40;;;;;;5047925;28;20099;-73
2023/05/23 04:31:53;;;;;;;36.33;23.27;;;13.20;99.40;;;;;;5050213;28;20029;-74
2023/05/23 04:34:21;;;;;;;36.42;22.38;;;13.30;99.60;;;;;;5042004;28;20028;-74
2023/05/23 04:36:47;;;;;;;34.92;23.13;;;13.30;99.50;;;;;;5060051;28;20032;-74
2023/05/23 04:39:12;;;;;;;34.58;22.67;;;13.30;99.60;;;;;;5046898;28;20025;-74
2023/05/23 04:41:38;;;;;;;36.22;22.88;;;13.30;99.60;;;;;;5042547;28;20029;-74
2023/05/23 04:44:04;;;;;;;36.20;24.80;;;13.30;99.60;;;;;;5048918;28;20025;-75
2023/05/23 04:46:30;;;;;;;44.35;23.63;;;13.30;99.60;;;;;;5042897;28;20045;-74
2023/05/23 04:48:57;;;;;;;38.25;23.85;;;13.30;99.60;;;;;;5042834;28;20071;-74
2023/05/23 04:51:23;;;;;;;43.28;23.95;;;13.30;99.70;;;;;;5045520;28;20020;-74
2023/05/23 04:53:49;;;;;;;41.42;24.08;;;13.30;99.80;;;;;;5047303;28;20028;-75
2023/05/23 04:56:16;;;;;;;46.70;26.20;;;13.30;99.90;;;;;;5043038;28;20035;-74
2023/05/23 04:58:44;;;;;;;45.88;26.50;;;13.30;99.90;;;;;;5044028;28;20548;-75
2023/05/23 05:01:10;;;;;;;53.65;27.00;;;13.30;99.90;;;;;;5039993;28;20021;-74
2023/05/23 05:03:35;;;;;;;54.60;29.65;;;13.30;99.90;;;;;;5038999;28;20124;-74
2023/05/23 05:06:01;;;;;;;57.03;29.30;;;13.40;99.90;;;;;;5035951;28;20441;-75
2023/05/23 05:08:27;;;;;;;47.60;29.10;;;13.30;99.90;;;;;;5046763;28;20400;-74
2023/05/23 05:10:54;;;;;;;53.67;29.05;;;13.30;99.90;;;;;;5045279;28;20027;-75
2023/05/23 05:13:19;;;;;;;58.05;30.27;;;13.40;99.90;;;;;;5047111;28;20771;-74
2023/05/23 05:15:45;;;;;;;51.63;30.48;;;13.40;99.90;;;;;;5042083;28;20035;-74
2023/05/23 05:18:11;;;;;;;56.03;31.65;;;13.40;99.90;;;;;;5046132;28;20025;-75
2023/05/23 05:20:36;;;;;;;54.58;32.13;;;13.40;99.90;;;;;;5039584;28;20104;-75
2023/05/23 05:23:02;;;;;;;61.05;31.70;;;13.50;99.90;;;;;;5052303;28;20036;-75
2023/05/23 05:25:30;;;;;;;56.88;31.55;;;13.40;99.90;;;;;;5052160;28;20454;-75
2023/05/23 05:28:04;;;;;;;50.10;31.17;;;13.40;99.90;;;;;;5036727;28;20098;-75
2023/05/23 05:30:33;;;;;;;57.75;32.17;;;13.50;99.90;;;;;;5046466;28;20021;-75
2023/05/23 05:33:00;;;;;;;54.72;31.35;;;13.50;99.90;;;;;;5043244;28;20111;-75
2023/05/23 05:35:26;;;;;;;56.70;33.05;;;13.50;99.90;;;;;;5046649;28;20374;-75
2023/05/23 05:37:51;;;;;;;51.03;31.73;;;13.50;99.90;;;;;;5040634;28;20033;-74
2023/05/23 05:40:17;;;;;;;59.70;33.83;;;13.50;99.90;;;;;;5045674;28;20045;-75
2023/05/23 05:42:42;;;;;;;59.10;33.50;;;13.50;99.90;;;;;;5038004;28;20037;-74
2023/05/23 05:45:10;;;;;;;58.63;33.70;;;13.50;99.90;;;;;;5039192;28;20047;-74
2023/05/23 05:47:37;;;;;;;57.85;33.08;;;13.50;99.90;;;;;;5047503;28;20038;-74
2023/05/23 05:50:08;;;;;;;58.42;34.72;;;13.50;99.90;;;;;;5047755;28;20602;-74
2023/05/23 05:52:37;;;;;;;61.53;35.15;;;13.50;99.90;;;;;;5044078;28;20454;-74
2023/05/23 05:55:06;;;;;;;65.10;36.30;;;13.50;99.90;;;;;;5047618;28;20504;-74
2023/05/23 05:57:32;;;;;;;62.60;37.17;;;13.60;99.90;;;;;;5053104;28;20033;-74
2023/05/23 05:59:57;;;;;;;66.88;37.83;;;13.50;99.90;;;;;;5043228;28;20024;-74
2023/05/23 06:02:23;;;;;;;66.03;36.75;;;13.60;99.90;;;;;;5052485;28;20033;-74
2023/05/23 06:04:48;;;;;;;66.03;37.53;;;13.60;99.90;;;;;;5069121;28;20036;-74
2023/05/23 06:07:14;;;;;;;73.70;39.40;;;13.60;99.90;;;;;;5054432;28;20461;-74
2023/05/23 06:09:40;;;;;;;76.47;41.47;;;13.60;99.90;;;;;;5062459;28;20027;-74
2023/05/23 06:12:05;;;;;;;69.28;39.78;;;13.60;99.90;;;;;;5048645;28;20443;-74
2023/05/23 06:14:31;;;;;;;78.88;41.17;;;13.70;99.90;;;;;;5050144;28;20025;-74
2023/05/23 06:16:56;;;;;;;86.47;41.67;;;13.60;99.90;;;;;;5038710;28;20481;-74
2023/05/23 06:19:22;;;;;;;72.03;40.20;;;13.70;99.90;;;;;;5048374;28;20040;-74
2023/05/23 06:21:47;;;;;;;72.68;38.85;;;13.70;99.90;;;;;;5041003;28;20108;-74
2023/05/23 06:24:13;;;;;;;62.92;35.60;;;13.70;99.90;;;;;;5060893;28;20415;-74
2023/05/23 06:26:38;;;;;;;58.03;33.92;;;13.70;99.90;;;;;;5057690;28;20048;-73
2023/05/23 06:29:04;;;;;;;62.63;34.53;;;13.80;99.90;;;;;;5051127;28;20461;-74
2023/05/23 06:31:29;;;;;;;59.28;32.58;;;13.80;99.90;;;;;;5053507;28;20095;-74
2023/05/23 06:33:55;;;;;;;64.45;32.88;;;13.80;99.90;;;;;;5043560;28;20505;-74
2023/05/23 06:36:20;;;;;;;46.75;28.23;;;13.90;99.90;;;;;;5051379;28;20024;-74
2023/05/23 06:38:46;;;;;;;43.15;26.33;;;13.80;99.90;;;;;;5050747;28;20133;-74
2023/05/23 06:41:12;;;;;;;40.00;24.48;;;13.90;99.90;;;;;;5051026;28;20492;-74
2023/05/23 06:43:37;;;;;;;38.20;23.85;;;13.90;99.90;;;;;;5052909;28;20020;-74
2023/05/23 06:46:03;;;;;;;42.88;28.38;;;14.00;99.90;;;;;;5054291;28;20029;-74
2023/05/23 06:48:28;;;;;;;50.65;32.22;;;14.00;99.90;;;;;;5053364;28;20412;-74
2023/05/23 06:50:54;;;;;;;46.28;31.70;;;13.90;99.90;;;;;;5049778;28;20025;-74
2023/05/23 06:53:20;;;;;;;54.10;36.92;;;13.90;99.90;;;;;;5047762;28;20025;-74
2023/05/23 06:55:45;;;;;;;56.25;38.08;;;13.80;99.90;;;;;;5048926;28;20029;-74
2023/05/23 06:58:11;;;;;;;59.10;37.95;;;13.80;99.90;;;;;;5049828;28;20041;-74
2023/05/23 07:00:37;;;;;;;52.10;37.85;;;13.80;99.90;;;;;;5049843;28;20099;-74
2023/05/23 07:03:03;;;;;;;55.88;36.55;;;13.80;99.90;;;;;;5049772;28;20028;-74
2023/05/23 07:05:28;;;;;;;47.63;35.05;;;13.80;99.90;;;;;;5050238;28;20413;-74
2023/05/23 07:07:54;;;;;;;55.28;38.47;;;13.80;99.90;;;;;;5044799;28;20037;-74
2023/05/23 07:10:20;;;;;;;49.22;37.28;;;13.80;99.90;;;;;;5053121;28;20070;-74
2023/05/23 07:12:46;;;;;;;47.20;35.60;;;13.80;99.90;;;;;;5046173;28;20393;-75
2023/05/23 07:15:12;;;;;;;46.90;35.58;;;13.80;99.90;;;;;;5052792;28;20029;-74
2023/05/23 07:17:37;;;;;;;49.33;35.40;;;13.80;99.90;;;;;;5049533;28;20040;-75
2023/05/23 07:20:03;;;;;;;42.38;34.60;;;13.80;99.80;;;;;;5051124;28;20025;-74
2023/05/23 07:22:30;;;;;;;41.03;31.95;;;13.80;99.80;;;;;;5045199;28;20462;-74
2023/05/23 07:24:55;;;;;;;37.92;29.25;;;13.80;99.70;;;;;;5043639;28;20063;-74
2023/05/23 07:27:21;;;;;;;32.70;27.58;;;13.80;99.60;;;;;;5045915;28;20049;-74
2023/05/23 07:29:46;;;;;;;28.92;25.38;;;13.70;99.30;;;;;;5048742;28;20365;-74
2023/05/23 07:32:12;;;;;;;34.72;25.58;;;13.80;99.10;;;;;;5043357;28;20111;-74
2023/05/23 07:34:37;;;;;;;25.30;22.60;;;13.90;99.20;;;;;;5042293;28;20093;-74
2023/05/23 07:37:03;;;;;;;28.58;21.05;;;13.80;99.00;;;;;;5051912;28;20285;-74
2023/05/23 07:39:28;;;;;;;24.83;21.00;;;13.80;98.80;;;;;;5053154;28;20056;-75
2023/05/23 07:41:53;;;;;;;27.25;20.40;;;13.90;98.90;;;;;;5046094;28;20586;-75
2023/05/23 07:44:19;;;;;;;26.27;19.40;;;13.90;98.90;;;;;;5051804;28;20032;-75
2023/05/23 07:46:45;;;;;;;22.25;18.05;;;13.90;98.80;;;;;;5049298;28;20042;-75
2023/05/23 07:49:10;;;;;;;26.23;18.33;;;13.90;98.80;;;;;;5051693;28;20452;-74
2023/05/23 07:51:36;;;;;;;26.15;18.25;;;13.90;98.70;;;;;;5051296;28;20029;-75
2023/05/23 07:54:01;;;;;;;24.83;17.40;;;13.90;98.80;;;;;;5052919;28;20116;-75
2023/05/23 07:56:27;;;;;;;24.75;15.38;;;13.80;98.80;;;;;;5046096;28;20171;-75
2023/05/23 07:58:52;;;;;;;21.55;14.07;;;13.80;99.00;;;;;;5046608;28;20025;-75
2023/05/23 08:01:19;;;;;;;19.88;13.50;;;13.70;99.00;;;;;;5036488;28;20024;-74
2023/05/23 08:03:44;;;;;;;18.50;13.32;;;13.70;99.10;;;;;;5049029;28;20025;-75
2023/05/23 08:06:10;;;;;;;19.40;13.43;;;13.70;99.00;;;;;;5044121;28;20039;-74
2023/05/23 08:08:36;;;;;;;21.42;13.02;;;13.70;98.90;;;;;;5051132;28;20170;-75
2023/05/23 08:11:02;;;;;;;19.92;12.07;;;13.70;98.90;;;;;;5050221;28;20528;-75
2023/05/23 08:13:27;;;;;;;14.27;10.65;;;13.70;98.80;;;;;;5049639;28;20133;-75
2023/05/23 08:15:53;;;;;;;13.30;7.75;;;13.60;98.80;;;;;;5042424;28;20033;-75
2023/05/23 08:18:18;;;;;;;12.02;7.07;;;13.50;98.60;;;;;;5040783;28;20055;-75
2023/05/23 08:20:44;;;;;;;10.38;6.75;;;13.40;98.50;;;;;;5044491;28;20025;-75
2023/05/23 08:23:11;;;;;;;14.18;7.57;;;13.30;98.70;;;;;;5047299;28;20025;-75
2023/05/23 08:25:37;;;;;;;15.13;7.72;;;13.20;99.00;;;;;;5047327;28;20059;-75
2023/05/23 08:28:02;;;;;;;13.45;7.55;;;13.10;99.10;;;;;;5046940;28;20025;-75
2023/05/23 08:30:28;;;;;;;14.75;7.68;;;13.10;99.10;;;;;;5047735;28;20507;-75
2023/05/23 08:32:55;;;;;;;16.27;7.65;;;12.90;99.20;;;;;;5044593;28;20506;-75
2023/05/23 08:35:21;;;;;;;14.55;7.75;;;12.80;99.30;;;;;;5048630;28;20115;-75
2023/05/23 08:37:47;;;;;;;14.38;7.32;;;12.60;99.30;;;;;;5048707;28;20087;-75
2023/05/23 08:40:21;;;;;;;16.88;6.88;;;12.60;99.60;;;;;;5048647;28;20028;-75
2023/05/23 08:42:47;;;;;;;14.43;6.53;;;12.50;99.50;;;;;;5049102;28;20373;-75
2023/05/23 08:45:13;;;;;;;17.20;6.18;;;12.30;99.50;;;;;;5047086;28;20445;-75
2023/05/23 08:47:42;;;;;;;17.33;7.60;;;12.30;99.60;;;;;;5047816;28;20078;-75
2023/05/23 08:50:11;;;;;;;16.40;7.35;;;12.30;99.60;;;;;;5042278;28;20021;-75
2023/05/23 08:52:46;;;;;;;13.30;6.20;;;12.30;99.70;;;;;;5044895;28;20112;-75
2023/05/23 08:55:12;;;;;;;19.33;6.90;;;12.20;99.40;;;;;;5048818;28;20098;-75
2023/05/23 08:57:42;;;;;;;16.13;7.25;;;12.10;99.50;;;;;;5049845;28;20469;-75
2023/05/23 09:00:13;;;;;;;16.70;7.80;;;12.10;99.40;;;;;;5043957;28;20024;-74
2023/05/23 09:02:39;;;;;;;;;;;12.20;99.70;;;;;;5039033;28;20028;-74
2023/05/23 09:05:05;;;;;;;12.38;5.10;;;12.10;99.50;;;;;;5044348;28;19915;-75
2023/05/23 09:07:30;;;;;;;18.27;5.78;;;12.00;99.20;;;;;;5042694;28;20400;-76
2023/05/23 09:09:56;;;;;;;13.05;4.40;;;12.00;99.30;;;;;;5040401;28;20206;-75
2023/05/23 09:12:22;;;;;;;12.60;4.85;;;11.90;99.20;;;;;;5034971;28;20036;-75
2023/05/23 09:14:47;;;;;;;13.27;5.47;;;11.90;99.20;;;;;;5041759;28;20055;-75
2023/05/23 09:17:20;;;;;;;14.52;4.85;;;12.00;99.20;;;;;;5050943;28;20033;-75
2023/05/23 09:19:48;;;;;;;14.82;5.43;;;12.00;99.10;;;;;;5047210;28;20108;-75
2023/05/23 09:22:14;;;;;;;10.23;4.53;;;12.00;99.00;;;;;;5047036;28;20025;-75
2023/05/23 09:24:40;;;;;;;11.20;4.75;;;12.00;99.00;;;;;;5047853;28;20029;-76
2023/05/23 09:27:06;;;;;;;12.07;4.78;;;12.00;99.20;;;;;;5047219;28;20037;-74
2023/05/23 09:29:35;;;;;;;11.15;4.53;;;12.00;99.10;;;;;;5034237;28;20033;-75
2023/05/23 09:32:15;;;;;;;9.98;4.30;;;12.00;99.00;;;;;;5039781;28;20043;-75
2023/05/23 09:34:56;;;;;;;14.68;4.20;;;11.90;98.90;;;;;;5048617;28;20029;-75
2023/05/23 09:37:29;;;;;;;15.52;4.32;;;11.90;98.80;;;;;;5049051;28;20026;-74
2023/05/23 09:39:56;;;;;;;20.20;4.72;;;11.80;98.60;;;;;;5043914;28;20037;-75
2023/05/23 09:42:22;;;;;;;13.52;4.45;;;11.80;98.80;;;;;;5038508;28;20086;-75
2023/05/23 09:44:48;;;;;;;11.48;3.60;;;11.70;98.50;;;;;;5045656;28;20357;-73
2023/05/23 09:47:15;;;;;;;14.00;3.95;;;11.70;98.50;;;;;;5048034;28;20061;-73
2023/05/23 09:49:43;;;;;;;16.65;3.88;;;11.80;98.80;;;;;;5038264;28;20037;-73
2023/05/23 09:52:09;;;;;;;17.30;3.90;;;11.80;98.90;;;;;;5047153;28;20053;-73
2023/05/23 09:54:35;;;;;;;13.18;3.72;;;11.80;98.80;;;;;;5050777;28;20574;-74
2023/05/23 09:57:01;;;;;;;13.10;3.42;;;11.60;98.20;;;;;;5043880;28;20052;-74
2023/05/23 09:59:31;;;;;;;15.32;3.22;;;11.60;98.00;;;;;;5042271;28;20033;-73
2023/05/23 10:01:57;;;;;;;12.90;3.97;;;11.50;97.80;;;;;;5048172;28;20056;-74
2023/05/23 10:04:24;;;;;;;11.63;3.97;;;11.50;97.60;;;;;;5045112;28;20033;-73
2023/05/23 10:06:58;;;;;;;15.48;4.18;;;11.50;97.30;;;;;;5051394;28;20064;-73
2023/05/23 10:09:27;;;;;;;12.75;3.85;;;11.40;97.00;;;;;;5055979;28;20066;-73
2023/05/23 10:12:30;;;;;;;12.07;3.17;;;11.40;96.60;;;;;;5056178;28;20028;-73
2023/05/23 10:15:00;;;;;;;10.73;4.25;;;11.50;96.30;;;;;;5048579;28;20028;-73
2023/05/23 10:17:45;;;;;;;12.35;3.65;;;11.40;95.90;;;;;;5053564;28;20347;-73
2023/05/23 10:20:13;;;;;;;12.65;3.45;;;11.50;95.70;;;;;;5050927;28;20386;-73
2023/05/23 10:22:39;;;;;;;17.83;3.50;;;11.60;95.50;;;;;;5048556;28;20036;-73
2023/05/23 10:25:06;;;;;;;12.93;3.65;;;11.70;94.80;;;;;;5054977;28;20102;-73
2023/05/23 10:27:31;;;;;;;13.70;3.40;;;11.70;94.80;;;;;;5044126;28;20035;-73
2023/05/23 10:29:58;;;;;;;15.52;4.15;;;11.90;94.90;;;;;;5048301;28;20017;-73
2023/05/23 10:32:25;;;;;;;16.70;4.00;;;12.00;94.80;;;;;;5048863;28;20194;-73
2023/05/23 10:35:38;;;;;;;10.23;3.20;;;12.00;94.70;;;;;;5049271;28;20057;-73
2023/05/23 10:38:07;;;;;;;12.48;3.85;;;12.00;94.80;;;;;;5047343;28;20052;-73
2023/05/23 10:40:42;;;;;;;12.80;3.50;;;11.90;94.60;;;;;;5050664;28;20029;-73
2023/05/23 10:43:19;;;;;;;12.75;3.38;;;11.90;94.40;;;;;;5052938;28;20369;-73
2023/05/23 10:45:49;;;;;;;9.88;3.00;;;11.80;93.30;;;;;;5048895;28;20112;-73
2023/05/23 10:48:34;;;;;;;14.82;3.30;;;11.90;93.20;;;;;;5054055;28;20051;-74
2023/05/23 10:51:13;;;;;;;9.05;2.78;;;11.80;92.50;;;;;;5039986;28;20049;-73
2023/05/23 10:53:44;;;;;;;7.38;2.78;;;11.90;92.00;;;;;;5049224;28;20032;-74
2023/05/23 10:56:19;;;;;;;12.85;3.40;;;12.10;91.70;;;;;;5045185;28;20108;-74
2023/05/23 10:58:45;;;;;;;12.65;3.10;;;12.50;91.50;;;;;;5045153;28;20596;-74
2023/05/23 11:01:16;;;;;;;12.88;3.35;;;12.60;90.30;;;;;;5049458;28;20056;-74
2023/05/23 11:03:45;;;;;;;11.52;3.05;;;12.70;89.00;;;;;;5044964;28;20040;-74
2023/05/23 11:06:43;;;;;;;11.20;2.92;;;12.80;87.30;;;;;;5042360;28;20024;-74
2023/05/23 11:09:17;;;;;;;18.05;2.78;;;13.00;86.30;;;;;;5053936;28;20078;-74
2023/05/23 11:11:54;;;;;;;8.85;2.67;;;13.10;86.30;;;;;;5036221;28;20024;-74
2023/05/23 11:14:30;;;;;;;11.63;2.35;;;13.40;86.20;;;;;;5054073;28;20017;-74
2023/05/23 11:16:56;;;;;;;8.23;2.30;;;13.10;84.10;;;;;;5053019;28;20033;-74
2023/05/23 11:19:24;;;;;;;9.85;2.53;;;13.50;83.10;;;;;;5060007;28;20026;-74
2023/05/23 11:22:00;;;;;;;10.45;2.47;;;13.40;83.20;;;;;;5057750;28;20013;-74
2023/05/23 11:24:50;;;;;;;11.02;2.75;;;13.20;84.70;;;;;;5057495;28;20071;-74
2023/05/23 11:27:24;;;;;;;12.95;2.63;;;13.50;84.00;;;;;;5046063;28;20048;-74
2023/05/23 11:30:12;;;;;;;7.20;2.15;;;13.40;84.00;;;;;;5059925;28;20342;-74
2023/05/23 11:32:38;;;;;;;11.82;3.28;;;13.30;84.20;;;;;;5056444;28;20034;-74
2023/05/23 11:35:08;;;;;;;14.63;2.78;;;13.30;84.80;;;;;;5051147;28;20377;-74
2023/05/23 11:37:34;;;;;;;14.32;3.20;;;13.10;83.90;;;;;;5056093;28;20033;-74
2023/05/23 11:40:27;;;;;;;8.90;2.67;;;13.10;84.10;;;;;;5058192;28;20427;-74
2023/05/23 11:42:53;;;;;;;16.25;3.20;;;13.10;83.80;;;;;;5048707;28;20082;-74
2023/05/23 11:45:20;;;;;;;16.67;2.75;;;14.00;82.80;;;;;;5048087;28;20027;-74
2023/05/23 11:47:45;;;;;;;10.82;2.75;;;14.20;78.70;;;;;;5045548;28;20056;-74
2023/05/23 11:50:11;;;;;;;15.15;3.40;;;14.90;78.00;;;;;;5049009;28;20063;-74
2023/05/23 11:52:36;;;;;;;15.30;3.45;;;15.60;77.90;;;;;;5051665;28;20028;-74
2023/05/23 11:55:02;;;;;;;7.70;2.97;;;15.30;75.10;;;;;;5052429;28;20529;-74
2023/05/23 11:57:28;;;;;;;11.93;2.85;;;15.00;76.00;;;;;;5043994;28;20492;-74
2023/05/23 11:59:54;;;;;;;12.43;3.22;;;15.00;75.60;;;;;;5046728;28;20083;-74
2023/05/23 12:02:21;;;;;;;12.48;2.97;;;14.70;75.70;;;;;;5051831;28;20078;-74
2023/05/23 12:04:47;;;;;;;16.17;3.38;;;14.60;76.10;;;;;;5043846;28;20508;-74
2023/05/23 12:07:13;;;;;;;10.85;3.15;;;14.60;75.50;;;;;;5043263;28;20382;-74
2023/05/23 12:09:43;;;;;;;12.57;3.00;;;14.70;74.50;;;;;;5046123;28;20017;-74
2023/05/23 12:12:08;;;;;;;16.27;3.63;;;14.60;73.90;;;;;;5047114;28;20463;-74
2023/05/23 12:14:34;;;;;;;11.57;3.10;;;14.70;75.30;;;;;;5046034;28;20033;-74
2023/05/23 12:17:00;;;;;;;11.55;2.80;;;14.10;75.60;;;;;;5046536;28;20086;-74
2023/05/23 12:19:26;;;;;;;14.68;3.33;;;14.00;75.00;;;;;;5046201;28;20060;-74
2023/05/23 12:21:51;;;;;;;13.50;3.47;;;14.50;73.10;;;;;;5049908;28;20036;-74
2023/05/23 12:24:21;;;;;;;13.30;2.95;;;14.30;75.50;;;;;;5049428;28;20017;-74
2023/05/23 12:27:01;;;;;;;17.47;3.23;;;14.00;75.60;;;;;;5044182;28;20055;-74
2023/05/23 12:29:34;;;;;;;9.80;2.85;;;14.70;73.50;;;;;;5049296;28;20329;-74
2023/05/23 12:32:06;;;;;;;14.85;3.45;;;15.10;73.10;;;;;;5048569;28;20044;-74